Terminal Aerodrome Forecast
Issued by NWS El Paso, TX

Home | Current Version | Previous Version | Text Only | Print | Product List | Glossary On
Versions: 1 2 3 4 5 6 7 8 9 10 11 12 13 14 15
000
FTUS44 KEPZ 241736
TAFELP
TAF
KELP 241736Z 2418/2518 32007KT P6SM SCT050 BKN140 BKN200
     FM242100 16008KT P6SM VCTS SCT060CB BKN120
     FM250400 25007KT P6SM SCT050 BKN100 BKN200=

USA.gov is the U.S. government's official web portal to all federal, state and local government web resources and services.